createdAt,value
2023-05-30T00:02:20.594Z,14.60
2023-05-30T00:04:50.330Z,14.60
2023-05-30T00:07:19.444Z,14.60
2023-05-30T00:09:47.336Z,14.50
2023-05-30T00:12:17.390Z,14.60
2023-05-30T00:14:45.358Z,14.50
2023-05-30T00:17:13.228Z,14.50
2023-05-30T00:19:41.117Z,14.50
2023-05-30T00:22:10.646Z,14.50
2023-05-30T00:24:38.521Z,14.50
2023-05-30T00:27:07.186Z,14.50
2023-05-30T00:29:35.061Z,14.40
2023-05-30T00:32:03.016Z,14.40
2023-05-30T00:34:30.940Z,14.40
2023-05-30T00:36:58.784Z,14.40
2023-05-30T00:39:28.009Z,14.10
2023-05-30T00:41:55.847Z,14.10
2023-05-30T00:44:23.721Z,14.10
2023-05-30T00:46:52.891Z,14.00
2023-05-30T00:49:21.146Z,14.00
2023-05-30T00:51:49.300Z,13.90
2023-05-30T00:54:17.341Z,13.90
2023-05-30T00:56:46.623Z,13.80
2023-05-30T00:59:14.770Z,13.70
2023-05-30T01:01:44.685Z,13.70
2023-05-30T01:04:12.607Z,13.50
2023-05-30T01:06:41.020Z,13.50
2023-05-30T01:09:09.381Z,13.40
2023-05-30T01:11:52.661Z,13.30
2023-05-30T01:14:27.162Z,13.30
2023-05-30T01:17:00.888Z,13.20
2023-05-30T01:19:59.882Z,13.10
2023-05-30T01:22:38.722Z,13.00
2023-05-30T01:25:23.894Z,13.00
2023-05-30T01:28:07.747Z,13.00
2023-05-30T01:30:38.827Z,13.00
2023-05-30T01:33:08.547Z,13.00
2023-05-30T01:35:36.583Z,13.00
2023-05-30T01:38:04.506Z,12.90
2023-05-30T01:40:32.815Z,12.90
2023-05-30T01:43:09.717Z,12.90
2023-05-30T01:45:45.807Z,12.90
2023-05-30T01:48:17.349Z,12.80
2023-05-30T01:50:50.075Z,12.80
2023-05-30T01:53:23.780Z,12.80
2023-05-30T01:55:56.358Z,12.80
2023-05-30T01:58:26.092Z,12.80
2023-05-30T02:00:56.484Z,12.80
2023-05-30T02:03:26.033Z,12.80
2023-05-30T02:05:54.186Z,12.80
2023-05-30T02:08:22.133Z,12.80
2023-05-30T02:10:50.125Z,12.80
2023-05-30T02:13:18.053Z,12.80
2023-05-30T02:15:47.256Z,12.80
2023-05-30T02:18:15.174Z,12.80
2023-05-30T02:20:43.128Z,12.80
2023-05-30T02:23:11.057Z,12.80
2023-05-30T02:25:38.987Z,12.80
2023-05-30T02:28:06.863Z,12.80
2023-05-30T02:30:34.753Z,12.80
2023-05-30T02:33:04.154Z,12.80
2023-05-30T02:35:32.182Z,12.80
2023-05-30T02:38:00.038Z,12.70
2023-05-30T02:40:27.933Z,12.70
2023-05-30T02:42:56.126Z,12.70
2023-05-30T02:45:24.834Z,12.70
2023-05-30T02:47:52.727Z,12.70
2023-05-30T02:50:21.983Z,12.70
2023-05-30T02:52:49.859Z,12.70
2023-05-30T02:55:17.800Z,12.70
2023-05-30T02:57:45.692Z,12.70
2023-05-30T03:00:14.946Z,12.70
2023-05-30T03:02:43.554Z,12.70
2023-05-30T03:05:11.892Z,12.70
2023-05-30T03:07:41.671Z,12.70
2023-05-30T03:10:10.189Z,12.70
2023-05-30T03:12:38.039Z,12.70
2023-05-30T03:15:06.692Z,12.70
2023-05-30T03:17:34.573Z,12.70
2023-05-30T03:20:02.735Z,12.70
2023-05-30T03:22:30.756Z,12.70
2023-05-30T03:24:59.976Z,12.70
2023-05-30T03:27:27.856Z,12.80
2023-05-30T03:29:57.244Z,12.70
2023-05-30T03:32:25.282Z,12.70
2023-05-30T03:34:53.985Z,12.80
2023-05-30T03:37:22.270Z,12.80
2023-05-30T03:39:50.114Z,12.80
2023-05-30T03:42:19.470Z,12.80
2023-05-30T03:44:47.482Z,12.80
2023-05-30T03:47:15.590Z,12.80
2023-05-30T03:49:43.629Z,12.80
2023-05-30T03:52:11.530Z,12.80
2023-05-30T03:54:39.441Z,12.80
2023-05-30T03:57:07.900Z,12.90
2023-05-30T03:59:37.129Z,12.90
2023-05-30T04:02:05.688Z,13.00
2023-05-30T04:04:33.609Z,13.00
2023-05-30T04:07:01.918Z,13.10
2023-05-30T04:09:29.898Z,13.20
2023-05-30T04:11:58.415Z,13.20
2023-05-30T04:14:26.351Z,13.30
2023-05-30T04:16:55.587Z,13.30
2023-05-30T04:19:23.460Z,13.30
2023-05-30T04:21:51.361Z,13.20
2023-05-30T04:24:19.279Z,13.30
2023-05-30T04:26:49.739Z,13.30
2023-05-30T04:29:18.240Z,13.30
2023-05-30T04:31:46.301Z,13.40
2023-05-30T04:34:16.384Z,13.60
2023-05-30T04:36:45.604Z,13.70
2023-05-30T04:39:13.711Z,13.90
2023-05-30T04:41:42.561Z,14.10
2023-05-30T04:44:10.485Z,14.20
2023-05-30T04:46:38.449Z,14.30
2023-05-30T04:49:07.407Z,14.50
2023-05-30T04:51:38.379Z,14.70
2023-05-30T04:54:07.071Z,14.80
2023-05-30T04:56:35.046Z,15.00
2023-05-30T04:59:03.062Z,15.20
2023-05-30T05:01:30.999Z,15.30
2023-05-30T05:03:59.052Z,15.30
2023-05-30T05:06:27.043Z,15.50
2023-05-30T05:08:57.612Z,15.70
2023-05-30T05:11:26.788Z,15.90
2023-05-30T05:13:54.679Z,16.20
2023-05-30T05:16:22.601Z,16.30
2023-05-30T05:18:51.334Z,16.50
2023-05-30T05:21:19.222Z,16.50
2023-05-30T05:23:47.110Z,16.50
2023-05-30T05:26:16.356Z,16.70
2023-05-30T05:28:44.262Z,16.90
2023-05-30T05:31:12.233Z,17.10
2023-05-30T05:33:40.122Z,17.20
2023-05-30T05:36:08.215Z,17.30
2023-05-30T05:38:36.111Z,17.10
2023-05-30T05:41:04.037Z,16.90
2023-05-30T05:43:33.440Z,16.80
2023-05-30T05:46:01.437Z,16.60
2023-05-30T05:48:29.373Z,16.60
2023-05-30T05:50:57.463Z,16.60
2023-05-30T05:53:25.613Z,16.60
2023-05-30T05:55:53.636Z,16.70
2023-05-30T05:58:21.668Z,16.90
2023-05-30T06:00:52.323Z,16.90
2023-05-30T06:03:20.933Z,17.10
2023-05-30T06:05:48.934Z,17.10
2023-05-30T06:08:16.943Z,17.30
2023-05-30T06:10:44.972Z,17.40
2023-05-30T06:13:12.980Z,17.40
2023-05-30T06:15:41.046Z,17.30
2023-05-30T06:18:10.679Z,17.20
2023-05-30T06:20:38.682Z,17.10
2023-05-30T06:23:06.771Z,16.90
2023-05-30T06:25:34.773Z,16.90
2023-05-30T06:28:02.708Z,17.00
2023-05-30T06:30:30.589Z,17.10
2023-05-30T06:32:58.543Z,17.20
2023-05-30T06:35:27.877Z,17.50
2023-05-30T06:37:55.898Z,17.70
2023-05-30T06:40:23.809Z,17.70
2023-05-30T06:42:51.696Z,18.00
2023-05-30T06:45:20.835Z,18.20
2023-05-30T06:47:49.059Z,18.10
2023-05-30T06:50:17.130Z,18.20
2023-05-30T06:52:46.384Z,18.30
2023-05-30T06:55:14.441Z,18.40
2023-05-30T06:57:42.540Z,18.90
2023-05-30T07:00:11.652Z,19.20
2023-05-30T07:02:39.576Z,19.30
2023-05-30T07:05:08.518Z,19.30
2023-05-30T07:07:36.537Z,19.30
2023-05-30T07:10:06.841Z,19.20
2023-05-30T07:12:34.943Z,19.50
2023-05-30T07:15:03.452Z,19.80
2023-05-30T07:17:31.414Z,19.90
2023-05-30T07:19:59.359Z,19.80
2023-05-30T07:22:27.254Z,19.90
2023-05-30T07:24:55.159Z,20.10
2023-05-30T07:27:24.472Z,20.30
2023-05-30T07:29:52.577Z,20.50
2023-05-30T07:32:20.524Z,20.60
2023-05-30T07:34:48.448Z,19.90
2023-05-30T07:37:16.431Z,19.90
2023-05-30T07:39:44.688Z,20.30
2023-05-30T07:42:12.569Z,20.50
2023-05-30T07:44:41.760Z,20.90
2023-05-30T07:47:09.811Z,20.70
2023-05-30T07:49:37.670Z,20.70
2023-05-30T07:52:06.060Z,20.90
2023-05-30T07:54:33.982Z,20.90
2023-05-30T07:57:03.044Z,21.20
2023-05-30T07:59:30.914Z,21.20
2023-05-30T08:02:02.631Z,21.30
2023-05-30T08:04:30.815Z,21.30
2023-05-30T08:06:58.781Z,21.30
2023-05-30T08:09:26.866Z,20.90
2023-05-30T08:11:54.764Z,20.70
2023-05-30T08:14:22.700Z,20.90
2023-05-30T08:16:50.800Z,21.30
2023-05-30T08:19:22.602Z,21.70
2023-05-30T08:21:50.476Z,21.90
2023-05-30T08:24:18.391Z,22.20
2023-05-30T08:26:49.796Z,22.50
2023-05-30T08:29:17.998Z,22.60
2023-05-30T08:31:45.912Z,22.80
2023-05-30T08:34:13.813Z,22.70
2023-05-30T08:36:43.132Z,22.40
2023-05-30T08:39:15.638Z,22.40
2023-05-30T08:41:44.069Z,22.70
2023-05-30T08:44:12.233Z,22.50
2023-05-30T08:46:43.619Z,22.50
2023-05-30T08:49:14.882Z,22.30
2023-05-30T08:51:45.411Z,22.40
2023-05-30T08:54:19.356Z,22.20
2023-05-30T08:56:51.161Z,22.60
2023-05-30T08:59:21.004Z,23.10
2023-05-30T09:01:52.935Z,23.60
2023-05-30T09:04:24.102Z,23.90
2023-05-30T09:06:57.982Z,23.90
2023-05-30T09:09:26.632Z,24.00
2023-05-30T09:11:55.777Z,23.70
2023-05-30T09:14:23.747Z,23.70
2023-05-30T09:16:51.921Z,24.00
2023-05-30T09:19:20.512Z,24.10
2023-05-30T09:21:49.105Z,23.90
2023-05-30T09:24:18.320Z,23.30
2023-05-30T09:26:58.558Z,23.20
2023-05-30T09:29:27.263Z,23.80
2023-05-30T09:31:55.527Z,24.30
2023-05-30T09:34:23.493Z,24.50
2023-05-30T09:36:56.567Z,24.40
2023-05-30T09:39:27.456Z,24.20
2023-05-30T09:41:58.589Z,24.00
2023-05-30T09:44:26.926Z,24.40
2023-05-30T09:46:58.922Z,24.40
2023-05-30T09:49:29.062Z,24.50
2023-05-30T09:51:57.108Z,24.30
2023-05-30T09:54:26.937Z,24.50
2023-05-30T09:56:55.594Z,24.90
2023-05-30T09:59:24.891Z,25.20
2023-05-30T10:01:53.063Z,25.20
2023-05-30T10:04:23.009Z,24.80
2023-05-30T10:06:52.513Z,24.40
2023-05-30T10:09:22.852Z,24.70
2023-05-30T10:11:53.628Z,25.10
2023-05-30T10:14:21.686Z,24.90
2023-05-30T10:16:53.725Z,24.70
2023-05-30T10:19:27.554Z,25.00
2023-05-30T10:24:25.197Z,24.80
2023-05-30T10:26:57.351Z,24.80
2023-05-30T10:29:30.422Z,25.00
2023-05-30T10:32:01.663Z,25.40
2023-05-30T10:34:36.730Z,25.40
2023-05-30T10:37:04.854Z,25.60
2023-05-30T10:39:53.877Z,25.30
2023-05-30T10:42:31.223Z,25.50
2023-05-30T10:45:10.111Z,25.50
2023-05-30T10:47:48.139Z,25.60
2023-05-30T10:50:27.418Z,25.70
2023-05-30T10:52:56.653Z,25.70
2023-05-30T10:55:24.800Z,26.10
2023-05-30T10:57:54.810Z,26.00
2023-05-30T11:00:25.364Z,26.00
2023-05-30T11:02:54.981Z,25.90
2023-05-30T11:05:27.855Z,26.00
2023-05-30T11:07:58.609Z,26.20
2023-05-30T11:10:28.348Z,26.50
2023-05-30T11:13:10.212Z,26.10
2023-05-30T11:15:38.656Z,25.30
2023-05-30T11:18:17.261Z,25.50
2023-05-30T11:20:53.968Z,25.30
2023-05-30T11:23:23.873Z,25.50
2023-05-30T11:25:54.991Z,25.80
2023-05-30T11:28:38.472Z,26.20
2023-05-30T11:31:21.451Z,26.10
2023-05-30T11:33:52.914Z,26.10
2023-05-30T11:36:21.967Z,26.00
2023-05-30T11:38:50.991Z,26.00
2023-05-30T11:41:19.016Z,25.80
2023-05-30T11:43:50.501Z,25.80
2023-05-30T11:46:21.175Z,25.80
2023-05-30T11:48:49.258Z,25.90
2023-05-30T11:51:17.240Z,25.90
2023-05-30T11:53:47.145Z,26.10
2023-05-30T11:56:15.264Z,26.10
2023-05-30T11:58:44.236Z,26.40
2023-05-30T12:01:14.825Z,26.50
2023-05-30T12:03:45.063Z,26.50
2023-05-30T12:06:14.379Z,26.50
2023-05-30T12:08:43.883Z,26.30
2023-05-30T12:11:12.948Z,26.00
2023-05-30T12:13:41.044Z,26.30
2023-05-30T12:16:09.211Z,26.70
2023-05-30T12:18:38.997Z,26.80
2023-05-30T12:21:07.626Z,26.80
2023-05-30T12:23:35.618Z,27.00
2023-05-30T12:26:03.609Z,27.20
2023-05-30T12:28:34.086Z,27.40
2023-05-30T12:31:02.269Z,27.60
2023-05-30T12:33:32.245Z,27.50
2023-05-30T12:36:01.602Z,26.90
2023-05-30T12:38:29.543Z,26.80
2023-05-30T12:40:58.188Z,27.20
2023-05-30T12:43:30.343Z,27.90
2023-05-30T12:46:01.393Z,27.50
2023-05-30T12:48:30.047Z,27.40
2023-05-30T12:50:59.600Z,28.00
2023-05-30T12:53:29.394Z,27.80
2023-05-30T12:55:57.281Z,28.20
2023-05-30T12:58:25.161Z,28.00
2023-05-30T13:00:53.064Z,28.10
2023-05-30T13:03:21.303Z,28.20
2023-05-30T13:05:50.045Z,28.30
2023-05-30T13:08:18.020Z,28.80
2023-05-30T13:10:47.477Z,29.10
2023-05-30T13:13:15.471Z,29.00
2023-05-30T13:15:43.374Z,29.00
2023-05-30T13:18:11.538Z,28.10
2023-05-30T13:20:39.677Z,27.80
2023-05-30T13:23:07.643Z,27.70
2023-05-30T13:25:35.526Z,28.00
2023-05-30T13:28:04.791Z,27.90
2023-05-30T13:30:33.028Z,28.00
2023-05-30T13:33:01.025Z,27.70
2023-05-30T13:35:28.944Z,26.90
2023-05-30T13:37:57.187Z,26.50
2023-05-30T13:40:25.179Z,26.00
2023-05-30T13:42:53.282Z,26.10
2023-05-30T13:45:22.645Z,26.40
2023-05-30T13:47:51.619Z,26.80
2023-05-30T13:50:23.316Z,26.40
2023-05-30T13:52:51.294Z,26.00
2023-05-30T13:55:19.225Z,25.60
2023-05-30T13:57:49.077Z,25.60
2023-05-30T14:00:18.566Z,25.50
2023-05-30T14:02:47.947Z,25.50
2023-05-30T14:05:18.587Z,25.80
2023-05-30T14:07:46.771Z,26.00
2023-05-30T14:10:15.130Z,26.00
2023-05-30T14:12:43.518Z,25.30
2023-05-30T14:15:12.734Z,25.10
2023-05-30T14:17:40.822Z,25.00
2023-05-30T14:20:12.377Z,24.80
2023-05-30T14:22:41.206Z,24.50
2023-05-30T14:25:09.822Z,24.50
2023-05-30T14:27:37.729Z,24.80
2023-05-30T14:30:08.230Z,24.80
2023-05-30T14:32:36.249Z,24.60
2023-05-30T14:35:04.460Z,24.20
2023-05-30T14:37:33.708Z,24.00
2023-05-30T14:40:02.549Z,23.90
2023-05-30T14:42:30.503Z,23.90
2023-05-30T14:44:58.609Z,23.90
2023-05-30T14:47:27.344Z,23.80
2023-05-30T14:49:55.331Z,23.70
2023-05-30T14:52:23.688Z,23.50
2023-05-30T14:54:53.456Z,23.40
2023-05-30T14:57:21.388Z,23.40
2023-05-30T14:59:49.393Z,23.20
2023-05-30T15:02:17.605Z,23.10
2023-05-30T15:04:45.464Z,22.80
2023-05-30T15:07:13.561Z,22.70
2023-05-30T15:09:41.505Z,22.50
2023-05-30T15:12:10.924Z,22.50
2023-05-30T15:14:38.829Z,22.50
2023-05-30T15:17:07.688Z,22.60
2023-05-30T15:19:35.648Z,22.40
2023-05-30T15:22:03.898Z,22.30
2023-05-30T15:24:33.690Z,22.30
2023-05-30T15:27:01.872Z,22.30
2023-05-30T15:29:31.192Z,22.30
2023-05-30T15:31:59.128Z,22.20
2023-05-30T15:34:27.062Z,22.10
2023-05-30T15:36:55.552Z,22.10
2023-05-30T15:39:23.437Z,22.00
2023-05-30T15:41:51.455Z,22.10
2023-05-30T15:44:19.415Z,22.10
2023-05-30T15:46:58.497Z,22.00
2023-05-30T15:49:27.085Z,21.90
2023-05-30T15:51:56.245Z,21.80
2023-05-30T15:54:26.812Z,21.70
2023-05-30T15:56:54.747Z,21.70
2023-05-30T15:59:22.717Z,21.60
2023-05-30T16:01:52.113Z,21.60
2023-05-30T16:04:20.148Z,21.50
2023-05-30T16:06:48.313Z,21.60
2023-05-30T16:09:16.766Z,21.40
2023-05-30T16:11:44.686Z,21.40
2023-05-30T16:14:12.668Z,21.40
2023-05-30T16:16:40.681Z,21.30
2023-05-30T16:19:10.013Z,21.20
2023-05-30T16:21:38.130Z,21.10
2023-05-30T16:24:06.895Z,21.00
2023-05-30T16:26:34.828Z,21.00
2023-05-30T16:29:02.946Z,21.00
2023-05-30T16:31:31.289Z,21.00
2023-05-30T16:33:59.339Z,20.90
2023-05-30T16:36:29.471Z,20.90
2023-05-30T16:38:57.625Z,20.80
2023-05-30T16:41:25.837Z,20.80
2023-05-30T16:43:54.925Z,20.80
2023-05-30T16:46:22.862Z,20.80
2023-05-30T16:48:50.928Z,20.70
2023-05-30T16:51:19.779Z,20.70
2023-05-30T16:53:49.098Z,20.70
2023-05-30T16:56:18.654Z,20.60
2023-05-30T16:58:47.715Z,20.60
2023-05-30T17:01:15.780Z,20.60
2023-05-30T17:03:44.336Z,20.50
2023-05-30T17:06:13.057Z,20.50
2023-05-30T17:08:42.257Z,20.40
2023-05-30T17:11:13.152Z,20.50
2023-05-30T17:13:41.250Z,20.40
2023-05-30T17:16:09.384Z,20.40
2023-05-30T17:18:37.357Z,20.30
2023-05-30T17:21:05.755Z,20.20
2023-05-30T17:23:34.436Z,20.20
2023-05-30T17:26:04.293Z,20.10
2023-05-30T17:28:33.966Z,20.10
2023-05-30T17:31:02.439Z,20.00
2023-05-30T17:33:30.855Z,20.00
2023-05-30T17:35:58.793Z,19.90
2023-05-30T17:38:27.281Z,19.80
2023-05-30T17:40:55.333Z,19.80
2023-05-30T17:43:24.231Z,19.90
2023-05-30T17:45:54.017Z,19.80
2023-05-30T17:48:22.281Z,19.70
2023-05-30T17:50:51.105Z,19.70
2023-05-30T17:53:19.126Z,19.60
2023-05-30T17:55:47.174Z,19.50
2023-05-30T17:58:15.248Z,19.50
2023-05-30T18:00:47.154Z,19.50
2023-05-30T18:03:18.307Z,19.40
2023-05-30T18:05:46.424Z,19.40
2023-05-30T18:08:16.531Z,19.30
2023-05-30T18:10:45.321Z,19.20
2023-05-30T18:13:14.449Z,19.20
2023-05-30T18:15:42.386Z,19.20
2023-05-30T18:18:10.329Z,19.10
2023-05-30T18:20:39.959Z,19.00
2023-05-30T18:23:08.459Z,18.90
2023-05-30T18:25:36.447Z,18.80
2023-05-30T18:28:08.058Z,18.80
2023-05-30T18:30:36.299Z,18.70
2023-05-30T18:33:04.510Z,18.70
2023-05-30T18:35:32.470Z,18.60
2023-05-30T18:38:02.129Z,18.50
2023-05-30T18:40:30.091Z,18.50
2023-05-30T18:42:58.050Z,18.40
2023-05-30T18:45:26.032Z,18.40
2023-05-30T18:47:54.020Z,18.30
2023-05-30T18:50:22.026Z,18.30
2023-05-30T18:52:50.040Z,18.20
2023-05-30T18:55:19.336Z,18.10
2023-05-30T18:57:47.280Z,18.10
2023-05-30T19:00:15.887Z,18.00
2023-05-30T19:02:43.895Z,17.90
2023-05-30T19:05:11.812Z,17.90
2023-05-30T19:07:39.824Z,17.80
2023-05-30T19:10:09.181Z,17.70
2023-05-30T19:12:38.455Z,17.70
2023-05-30T19:15:07.436Z,17.60
2023-05-30T19:17:35.430Z,17.60
2023-05-30T19:20:04.252Z,17.50
2023-05-30T19:22:32.341Z,17.50
2023-05-30T19:25:00.315Z,17.50
2023-05-30T19:27:28.276Z,17.40
2023-05-30T19:29:57.668Z,17.40
2023-05-30T19:32:25.637Z,17.30
2023-05-30T19:34:53.681Z,17.30
2023-05-30T19:37:21.647Z,17.20
2023-05-30T19:39:49.580Z,17.10
2023-05-30T19:42:17.614Z,17.00
2023-05-30T19:44:45.716Z,16.90
2023-05-30T19:47:15.068Z,16.80
2023-05-30T19:49:43.257Z,16.60
2023-05-30T19:52:11.165Z,16.50
2023-05-30T19:54:39.529Z,16.50
2023-05-30T19:57:08.240Z,16.30
2023-05-30T19:59:36.212Z,16.30
2023-05-30T20:02:04.250Z,16.30
2023-05-30T20:04:33.972Z,16.20
2023-05-30T20:07:01.864Z,16.10
2023-05-30T20:09:29.830Z,16.10
2023-05-30T20:11:57.785Z,16.10
2023-05-30T20:14:25.743Z,16.00
2023-05-30T20:16:53.747Z,16.00
2023-05-30T20:19:23.821Z,16.00
2023-05-30T20:21:53.103Z,16.00
2023-05-30T20:24:21.007Z,16.00
2023-05-30T20:26:49.505Z,16.00
2023-05-30T20:29:17.508Z,16.00
2023-05-30T20:31:45.534Z,15.90
2023-05-30T20:34:14.156Z,15.90
2023-05-30T20:36:42.160Z,15.90
2023-05-30T20:39:11.765Z,15.80
2023-05-30T20:41:39.852Z,15.80
2023-05-30T20:44:07.790Z,15.80
2023-05-30T20:46:35.784Z,15.80
2023-05-30T20:49:03.829Z,15.80
2023-05-30T20:51:32.818Z,15.70
2023-05-30T20:54:00.953Z,15.70
2023-05-30T20:56:30.268Z,15.70
2023-05-30T20:58:58.229Z,15.60
2023-05-30T21:01:26.777Z,15.60
2023-05-30T21:03:55.051Z,15.60
2023-05-30T21:06:23.088Z,15.60
2023-05-30T21:08:51.098Z,15.60
2023-05-30T21:11:19.074Z,15.60
2023-05-30T21:13:48.385Z,15.50
2023-05-30T21:16:16.434Z,15.50
2023-05-30T21:18:44.453Z,15.60
2023-05-30T21:21:12.354Z,15.50
2023-05-30T21:23:40.262Z,15.40
2023-05-30T21:26:09.327Z,15.40
2023-05-30T21:28:37.264Z,15.30
2023-05-30T21:31:08.430Z,15.30
2023-05-30T21:33:36.415Z,15.30
2023-05-30T21:36:04.443Z,15.20
2023-05-30T21:38:32.368Z,15.20
2023-05-30T21:41:00.566Z,15.20
2023-05-30T21:43:28.617Z,15.10
2023-05-30T21:45:56.544Z,15.10
2023-05-30T21:48:26.036Z,15.10
2023-05-30T21:50:53.972Z,15.00
2023-05-30T21:53:21.903Z,15.00
2023-05-30T21:55:49.829Z,14.90
2023-05-30T21:58:17.858Z,14.90
2023-05-30T22:00:47.791Z,14.90
2023-05-30T22:03:16.679Z,14.80
2023-05-30T22:05:46.406Z,14.80
2023-05-30T22:08:14.477Z,14.80
2023-05-30T22:10:42.385Z,14.70
2023-05-30T22:13:10.305Z,14.70
2023-05-30T22:15:38.191Z,14.60
2023-05-30T22:18:06.504Z,14.60
2023-05-30T22:20:34.660Z,14.50
2023-05-30T22:23:03.864Z,14.50
2023-05-30T22:25:31.787Z,14.50
2023-05-30T22:27:59.904Z,14.40
2023-05-30T22:30:27.772Z,14.40
2023-05-30T22:32:56.316Z,14.30
2023-05-30T22:35:24.259Z,14.30
2023-05-30T22:37:52.264Z,14.20
2023-05-30T22:40:21.542Z,14.20
2023-05-30T22:42:49.385Z,14.10
2023-05-30T22:45:17.290Z,14.10
2023-05-30T22:47:45.184Z,14.00
2023-05-30T22:50:13.072Z,14.00
2023-05-30T22:52:40.957Z,14.00
2023-05-30T22:55:09.298Z,13.90
2023-05-30T22:57:38.674Z,13.90
2023-05-30T23:00:07.896Z,13.90
2023-05-30T23:02:35.828Z,13.80
2023-05-30T23:05:03.772Z,13.80
2023-05-30T23:07:31.665Z,13.80
2023-05-30T23:09:59.712Z,13.80
2023-05-30T23:12:27.657Z,13.80
2023-05-30T23:14:56.899Z,13.80
2023-05-30T23:17:24.765Z,13.80
2023-05-30T23:19:52.687Z,13.70
2023-05-30T23:22:20.571Z,13.70
2023-05-30T23:24:48.530Z,13.70
2023-05-30T23:27:16.616Z,13.70
2023-05-30T23:29:44.649Z,13.60
2023-05-30T23:32:13.911Z,13.50
2023-05-30T23:34:41.839Z,13.50
2023-05-30T23:37:09.782Z,13.50
2023-05-30T23:39:37.672Z,13.40
2023-05-30T23:42:06.862Z,13.30
2023-05-30T23:44:34.817Z,13.30
2023-05-30T23:47:02.891Z,13.20
2023-05-30T23:49:33.391Z,13.20
2023-05-30T23:52:01.634Z,13.10
2023-05-30T23:54:29.638Z,13.10
2023-05-30T23:56:57.635Z,13.00
2023-05-30T23:59:25.583Z,12.90
